Time;durP1;ratioP1;P1;durP2;ratioP2;P2;SDS_P1;SDS_P2;PMS_P1;PMS_P2;Temp;Humidity;BMP_temperature;BMP_pressure;BME280_temperature;BME280_humidity;BME280_pressure;Samples;Min_cycle;Max_cycle;Signal;HPM_P1;HPM_P2
2023/01/12 00:01:20;;;;;;;5.18;0.40;;;9.30;99.90;;;;;;5035101;28;20030;-74
2023/01/12 00:03:46;;;;;;;4.10;0.45;;;9.30;99.90;;;;;;5017042;28;20041;-77
2023/01/12 00:06:13;;;;;;;10.13;0.60;;;9.30;99.90;;;;;;5000976;28;20363;-77
2023/01/12 00:08:39;;;;;;;6.32;0.75;;;9.30;99.90;;;;;;5033258;28;20067;-75
2023/01/12 00:11:05;;;;;;;6.40;0.80;;;9.30;99.90;;;;;;5033416;28;20041;-75
2023/01/12 00:13:32;;;;;;;9.13;0.80;;;9.30;99.90;;;;;;5034829;28;20045;-74
2023/01/12 00:18:44;;;;;;;4.65;0.70;;;9.40;99.90;;;;;;5034397;28;20502;-74
2023/01/12 00:21:09;;;;;;;7.05;0.57;;;9.40;99.90;;;;;;5033987;28;20048;-74
2023/01/12 00:23:35;;;;;;;5.97;0.50;;;9.30;99.90;;;;;;5033667;28;20466;-78
2023/01/12 00:26:01;;;;;;;8.73;1.00;;;9.30;99.90;;;;;;5033825;28;20033;-75
2023/01/12 00:28:26;;;;;;;6.22;1.13;;;9.40;99.90;;;;;;5034065;28;20029;-75
2023/01/12 00:30:52;;;;;;;8.73;1.00;;;9.40;99.90;;;;;;5033724;28;20459;-75
2023/01/12 00:33:18;;;;;;;9.63;1.38;;;9.40;99.90;;;;;;5000801;28;20041;-74
2023/01/12 00:35:44;;;;;;;11.63;1.45;;;9.40;99.90;;;;;;5016822;28;20064;-74
2023/01/12 00:38:10;;;;;;;7.95;1.23;;;9.40;99.90;;;;;;5034313;28;20030;-74
2023/01/12 00:40:36;;;;;;;13.50;1.42;;;9.30;99.90;;;;;;5017003;28;20457;-75
2023/01/12 00:45:49;;;;;;;8.05;1.40;;;9.40;99.90;;;;;;5034968;28;20083;-74
2023/01/12 00:48:15;;;;;;;12.38;1.67;;;9.40;99.90;;;;;;5033347;28;20029;-74
2023/01/12 00:50:41;;;;;;;11.35;1.48;;;9.40;99.90;;;;;;5034743;28;20520;-74
2023/01/12 00:53:06;;;;;;;11.55;1.75;;;9.40;99.90;;;;;;5033934;28;20045;-75
2023/01/12 00:55:32;;;;;;;13.48;1.80;;;9.40;99.90;;;;;;5033330;28;20492;-74
2023/01/12 00:57:58;;;;;;;9.52;1.88;;;9.40;99.90;;;;;;5016927;28;20037;-74
2023/01/12 01:00:24;;;;;;;13.40;1.75;;;9.40;99.90;;;;;;5033385;28;20057;-74
2023/01/12 01:02:49;;;;;;;11.52;1.85;;;9.50;99.90;;;;;;5032921;28;20091;-75
2023/01/12 01:05:16;;;;;;;15.88;3.08;;;9.40;99.90;;;;;;5032939;28;20046;-74
2023/01/12 01:07:42;;;;;;;13.27;2.40;;;9.40;99.90;;;;;;5016587;28;20029;-75
2023/01/12 01:10:09;;;;;;;13.10;2.30;;;9.40;99.90;;;;;;5032841;28;20044;-74
2023/01/12 01:12:35;;;;;;;18.42;2.90;;;9.40;99.90;;;;;;5017297;28;20178;-74
2023/01/12 01:15:01;;;;;;;16.65;2.67;;;9.40;99.90;;;;;;5032574;28;20075;-75
2023/01/12 01:17:27;;;;;;;15.93;3.15;;;9.40;99.90;;;;;;5033235;28;20033;-74
2023/01/12 01:19:53;;;;;;;16.30;3.25;;;9.40;99.90;;;;;;5032224;28;20029;-75
2023/01/12 01:22:19;;;;;;;15.57;3.03;;;9.40;99.90;;;;;;5033262;28;20040;-75
2023/01/12 01:24:46;;;;;;;17.77;3.38;;;9.40;99.90;;;;;;5016142;28;20033;-74
2023/01/12 01:27:12;;;;;;;23.65;3.97;;;9.40;99.90;;;;;;5032632;28;20026;-74
2023/01/12 01:29:38;;;;;;;17.83;3.60;;;9.40;99.90;;;;;;5033266;28;20099;-74
2023/01/12 01:32:04;;;;;;;20.23;3.88;;;9.40;99.90;;;;;;5032186;28;20026;-74
2023/01/12 01:34:30;;;;;;;16.50;3.08;;;9.40;99.90;;;;;;5033209;28;20037;-74
2023/01/12 01:36:55;;;;;;;20.20;3.25;;;9.40;99.90;;;;;;5031999;28;20049;-74
2023/01/12 01:39:21;;;;;;;14.85;3.05;;;9.40;99.90;;;;;;5032523;28;20092;-74
2023/01/12 01:41:47;;;;;;;19.67;2.72;;;9.40;99.90;;;;;;5016338;28;20524;-74
2023/01/12 01:44:31;;;;;;;16.63;3.10;;;9.40;99.90;;;;;;5015746;28;20552;-74
2023/01/12 01:47:16;;;;;;;18.02;3.33;;;9.40;99.90;;;;;;5032668;28;20466;-74
2023/01/12 01:49:44;;;;;;;17.20;3.22;;;9.50;99.90;;;;;;5032558;28;20075;-74
2023/01/12 01:52:33;;;;;;;21.30;3.42;;;9.40;99.90;;;;;;5033043;28;20109;-74
2023/01/12 01:55:05;;;;;;;19.58;3.42;;;9.40;99.90;;;;;;5033223;28;20029;-75
2023/01/12 01:57:40;;;;;;;17.20;3.13;;;9.40;99.90;;;;;;5033264;28;20029;-75
2023/01/12 02:00:09;;;;;;;22.33;3.58;;;9.40;99.90;;;;;;5032319;28;20029;-74
2023/01/12 02:02:36;;;;;;;16.05;2.92;;;9.40;99.90;;;;;;5033270;28;20021;-74
2023/01/12 02:05:02;;;;;;;17.20;2.88;;;9.40;99.90;;;;;;5035621;28;20037;-75
2023/01/12 02:07:27;;;;;;;17.70;2.90;;;9.40;99.90;;;;;;5037088;28;20033;-75
2023/01/12 02:09:53;;;;;;;16.58;2.70;;;9.40;99.90;;;;;;5036010;28;20034;-74
2023/01/12 02:18:02;;;;;;;14.35;2.22;;;9.50;99.90;;;;;;5037582;28;20410;-74
2023/01/12 02:20:39;;;;;;;10.50;2.25;;;9.50;99.90;;;;;;5037263;28;20026;-75
2023/01/12 02:23:10;;;;;;;13.38;2.10;;;9.50;99.90;;;;;;5036574;28;20120;-74
2023/01/12 02:25:55;;;;;;;13.73;2.30;;;9.40;99.90;;;;;;5037182;28;20030;-74
2023/01/12 02:28:41;;;;;;;11.93;2.40;;;9.40;99.90;;;;;;5037407;28;20427;-76
2023/01/12 02:31:39;;;;;;;12.98;2.00;;;9.40;99.90;;;;;;5035676;28;20040;-75
2023/01/12 02:34:31;;;;;;;10.02;1.50;;;9.40;99.90;;;;;;5036619;28;20076;-75
2023/01/12 02:37:35;;;;;;;12.27;1.52;;;9.40;99.90;;;;;;5035419;28;20057;-75
2023/01/12 02:40:12;;;;;;;9.25;1.33;;;9.40;99.90;;;;;;5036780;28;20488;-75
2023/01/12 02:42:58;;;;;;;9.93;1.50;;;9.40;99.90;;;;;;5036680;28;20025;-75
2023/01/12 02:45:41;;;;;;;12.40;2.47;;;9.40;99.90;;;;;;5035987;28;20025;-74
2023/01/12 02:48:16;;;;;;;10.32;2.45;;;9.40;99.90;;;;;;5037004;28;20108;-74
2023/01/12 02:51:21;;;;;;;10.05;1.70;;;9.40;99.90;;;;;;5035507;28;20034;-75
2023/01/12 02:53:51;;;;;;;14.45;1.80;;;9.40;99.90;;;;;;5035606;28;20037;-74
2023/01/12 02:56:42;;;;;;;11.10;1.42;;;9.40;99.90;;;;;;5036383;28;20028;-74
2023/01/12 02:59:23;;;;;;;12.65;1.50;;;9.40;99.90;;;;;;5035779;28;20342;-74
2023/01/12 03:01:50;;;;;;;8.45;1.30;;;9.40;99.90;;;;;;5036439;28;20022;-75
2023/01/12 03:04:21;;;;;;;9.48;1.80;;;9.40;99.90;;;;;;5036240;28;20041;-74
2023/01/12 03:07:21;;;;;;;10.25;1.48;;;9.40;99.90;;;;;;5036379;28;20028;-74
2023/01/12 03:09:51;;;;;;;10.38;1.38;;;9.40;99.90;;;;;;5035368;28;20030;-74
2023/01/12 03:12:23;;;;;;;13.20;1.30;;;9.40;99.90;;;;;;5036305;28;20034;-74
2023/01/12 03:14:52;;;;;;;12.32;1.60;;;9.40;99.90;;;;;;5035207;28;20029;-74
2023/01/12 03:17:26;;;;;;;19.80;2.45;;;9.40;99.90;;;;;;5036302;28;20033;-74
2023/01/12 03:19:55;;;;;;;9.73;1.70;;;9.40;99.90;;;;;;5034994;28;20132;-74
2023/01/12 03:22:21;;;;;;;17.10;2.10;;;9.50;99.90;;;;;;5035615;28;20029;-74
2023/01/12 03:24:56;;;;;;;11.07;1.75;;;9.50;99.90;;;;;;5035860;28;20110;-74
2023/01/12 03:27:31;;;;;;;13.32;1.67;;;9.50;99.90;;;;;;5036019;28;20035;-74
2023/01/12 03:30:08;;;;;;;17.67;2.38;;;9.50;99.90;;;;;;5034681;28;20100;-74
2023/01/12 03:32:34;;;;;;;18.45;3.42;;;9.50;99.90;;;;;;5035563;28;20397;-74
2023/01/12 03:35:00;;;;;;;11.85;2.13;;;9.50;99.90;;;;;;5034452;28;20038;-74
2023/01/12 03:37:31;;;;;;;13.93;1.90;;;9.50;99.90;;;;;;5034997;28;20061;-74
2023/01/12 03:40:08;;;;;;;17.95;2.25;;;9.50;99.90;;;;;;5034305;28;20501;-75
2023/01/12 03:42:45;;;;;;;15.50;2.33;;;9.40;99.90;;;;;;5035684;28;20142;-74
2023/01/12 03:45:11;;;;;;;22.08;2.85;;;9.40;99.90;;;;;;5034543;28;20489;-74
2023/01/12 03:47:40;;;;;;;12.27;2.22;;;9.40;99.90;;;;;;5035200;28;20033;-74
2023/01/12 03:50:24;;;;;;;17.65;2.83;;;9.40;99.90;;;;;;5034158;28;20022;-74
2023/01/12 03:52:52;;;;;;;16.70;1.60;;;9.40;99.90;;;;;;5034688;28;20029;-74
2023/01/12 03:55:22;;;;;;;12.15;1.70;;;9.40;99.90;;;;;;5035326;28;20030;-74
2023/01/12 03:57:49;;;;;;;15.57;1.88;;;9.40;99.90;;;;;;5035323;28;20075;-74
2023/01/12 04:00:18;;;;;;;14.70;1.92;;;9.40;99.90;;;;;;5035013;28;20025;-74
2023/01/12 04:02:44;;;;;;;12.68;1.73;;;9.40;99.90;;;;;;5035298;28;20045;-74
2023/01/12 04:05:12;;;;;;;13.23;2.53;;;9.40;99.90;;;;;;5033956;28;20029;-74
2023/01/12 04:07:38;;;;;;;10.38;1.40;;;9.30;99.90;;;;;;5035112;28;20108;-76
2023/01/12 04:10:04;;;;;;;11.82;1.38;;;9.30;99.90;;;;;;5034518;28;20391;-75
2023/01/12 04:12:30;;;;;;;13.98;1.70;;;9.30;99.90;;;;;;5033754;28;20029;-74
2023/01/12 04:14:55;;;;;;;12.40;1.80;;;9.30;99.90;;;;;;5034049;28;20359;-75
2023/01/12 04:17:24;;;;;;;13.35;1.48;;;9.30;99.90;;;;;;5035272;28;20025;-74
2023/01/12 04:19:50;;;;;;;10.30;1.05;;;9.30;99.90;;;;;;5035180;28;20477;-73
2023/01/12 04:25:02;;;;;;;9.80;1.23;;;9.30;99.90;;;;;;5034988;28;20044;-73
2023/01/12 04:27:28;;;;;;;9.07;1.13;;;9.30;99.90;;;;;;5034365;28;20036;-73
2023/01/12 04:29:54;;;;;;;11.00;1.10;;;9.30;99.90;;;;;;5033302;28;20415;-74
2023/01/12 04:32:20;;;;;;;8.93;1.02;;;9.30;99.90;;;;;;5033360;28;20029;-74
2023/01/12 04:34:46;;;;;;;10.80;1.10;;;9.30;99.90;;;;;;5033482;28;20044;-73
2023/01/12 04:37:12;;;;;;;7.68;1.15;;;9.30;99.90;;;;;;5016783;28;20057;-74
2023/01/12 04:39:37;;;;;;;16.63;1.52;;;9.30;99.90;;;;;;5034261;28;20030;-74
2023/01/12 04:42:03;;;;;;;11.10;1.15;;;9.30;99.90;;;;;;5034472;28;20036;-76
2023/01/12 04:44:29;;;;;;;10.98;1.60;;;9.30;99.90;;;;;;5016770;28;20552;-74
2023/01/12 04:46:55;;;;;;;13.00;1.10;;;9.30;99.90;;;;;;5034023;28;20041;-73
2023/01/12 04:49:21;;;;;;;11.35;0.98;;;9.30;99.90;;;;;;5032954;28;20030;-74
2023/01/12 04:51:46;;;;;;;12.40;0.95;;;9.30;99.90;;;;;;5034181;28;20453;-74
2023/01/12 04:54:12;;;;;;;7.85;0.93;;;9.30;99.90;;;;;;5033722;28;20080;-75
2023/01/12 04:56:38;;;;;;;14.07;1.30;;;9.20;99.90;;;;;;5034205;28;20021;-74
2023/01/12 04:59:05;;;;;;;13.00;1.35;;;9.30;99.90;;;;;;5032685;28;20087;-74
2023/01/12 05:01:31;;;;;;;10.52;1.23;;;9.30;99.90;;;;;;5033511;28;20026;-73
2023/01/12 05:04:01;;;;;;;17.33;1.67;;;9.20;99.90;;;;;;5033955;28;20083;-74
2023/01/12 05:06:27;;;;;;;11.93;1.42;;;9.20;99.90;;;;;;5032701;28;20029;-74
2023/01/12 05:11:37;;;;;;;8.70;1.42;;;9.20;99.90;;;;;;5033193;28;20095;-74
2023/01/12 05:14:04;;;;;;;11.80;1.08;;;9.30;99.90;;;;;;5032646;28;20037;-74
2023/01/12 05:16:30;;;;;;;7.40;1.23;;;9.30;99.90;;;;;;5033816;28;20489;-74
2023/01/12 05:18:55;;;;;;;6.85;0.70;;;9.30;99.90;;;;;;5033865;28;20029;-74
2023/01/12 05:21:23;;;;;;;5.50;0.88;;;9.30;99.90;;;;;;5033442;28;20064;-74
2023/01/12 05:23:51;;;;;;;9.48;0.90;;;9.30;99.90;;;;;;5032831;28;20188;-74
2023/01/12 05:26:16;;;;;;;8.15;0.70;;;9.30;99.90;;;;;;5033507;28;20036;-75
2023/01/12 05:28:42;;;;;;;8.20;0.80;;;9.40;99.90;;;;;;5033703;28;20030;-74
2023/01/12 05:31:12;;;;;;;4.93;0.65;;;9.40;99.90;;;;;;5033738;28;20476;-74
2023/01/12 05:33:40;;;;;;;4.75;0.70;;;9.40;99.90;;;;;;5033967;28;20044;-74
2023/01/12 05:36:08;;;;;;;10.45;1.10;;;9.40;99.90;;;;;;5032340;28;20052;-74
2023/01/12 05:38:34;;;;;;;7.05;0.77;;;9.40;99.90;;;;;;5032911;28;20037;-74
2023/01/12 05:41:01;;;;;;;8.23;1.35;;;9.40;99.90;;;;;;5033270;28;20025;-74
2023/01/12 05:46:15;;;;;;;6.10;0.57;;;9.40;99.90;;;;;;5032842;28;20063;-74
2023/01/12 05:48:41;;;;;;;7.22;0.88;;;9.40;99.90;;;;;;5033873;28;20026;-74
2023/01/12 05:51:09;;;;;;;9.63;0.98;;;9.40;99.90;;;;;;5033102;28;20033;-76
2023/01/12 05:53:35;;;;;;;8.07;1.27;;;9.40;99.90;;;;;;5033310;28;20038;-74
2023/01/12 05:56:09;;;;;;;6.25;0.60;;;9.40;99.90;;;;;;5032157;28;20036;-75
2023/01/12 05:58:34;;;;;;;9.77;0.68;;;9.40;99.90;;;;;;5032559;28;20116;-75
2023/01/12 06:01:00;;;;;;;8.05;0.68;;;9.40;99.90;;;;;;5032350;28;20064;-74
2023/01/12 06:03:25;;;;;;;5.40;0.60;;;9.40;99.90;;;;;;5031539;28;20029;-74
2023/01/12 06:05:57;;;;;;;8.90;1.50;;;9.40;99.90;;;;;;5031903;28;20021;-74
2023/01/12 06:08:23;;;;;;;8.82;0.70;;;9.40;99.90;;;;;;5033196;28;20033;-74
2023/01/12 06:10:49;;;;;;;4.70;0.47;;;9.50;99.90;;;;;;5033078;28;20029;-76
2023/01/12 06:16:03;;;;;;;5.07;0.60;;;9.50;99.90;;;;;;5018334;28;20088;-75
2023/01/12 06:18:34;;;;;;;9.07;0.80;;;9.50;99.90;;;;;;5015997;28;20076;-74
2023/01/12 06:21:02;;;;;;;8.45;0.77;;;9.50;99.90;;;;;;5032911;28;20470;-76
2023/01/12 06:23:28;;;;;;;5.20;0.32;;;9.50;99.90;;;;;;5031721;28;20025;-74
2023/01/12 06:25:54;;;;;;;8.20;0.88;;;9.50;99.90;;;;;;5033017;28;20029;-74
2023/01/12 06:28:20;;;;;;;4.88;0.70;;;9.50;99.90;;;;;;5031708;28;20036;-74
2023/01/12 06:30:54;;;;;;;5.43;0.63;;;9.50;99.90;;;;;;5031610;28;20124;-75
2023/01/12 06:33:20;;;;;;;4.57;0.47;;;9.50;99.90;;;;;;5032934;28;20046;-73
2023/01/12 06:35:49;;;;;;;7.55;0.60;;;9.60;99.90;;;;;;5031182;28;20409;-73
2023/01/12 06:38:15;;;;;;;8.05;0.55;;;9.60;99.90;;;;;;5031994;28;20068;-73
2023/01/12 06:40:41;;;;;;;4.55;0.30;;;9.60;99.90;;;;;;5031802;28;20061;-74
2023/01/12 06:43:07;;;;;;;4.30;0.40;;;9.60;99.90;;;;;;5032795;28;20025;-74
2023/01/12 06:45:32;;;;;;;12.93;0.80;;;9.60;99.90;;;;;;5033108;28;20083;-75
2023/01/12 06:47:58;;;;;;;4.90;0.30;;;9.60;99.90;;;;;;5031483;28;20083;-75
2023/01/12 06:50:24;;;;;;;4.43;0.60;;;9.60;99.90;;;;;;5034184;28;20048;-77
2023/01/12 06:52:49;;;;;;;7.25;0.60;;;9.70;99.90;;;;;;5002454;28;20474;-75
2023/01/12 06:55:15;;;;;;;4.07;0.70;;;9.70;99.90;;;;;;5035933;28;20087;-75
2023/01/12 06:57:41;;;;;;;3.97;0.55;;;9.70;99.90;;;;;;5036387;28;20450;-75
2023/01/12 07:00:08;;;;;;;3.92;0.50;;;9.70;99.90;;;;;;5034800;28;20108;-75
2023/01/12 07:02:33;;;;;;;6.75;0.70;;;9.70;99.90;;;;;;5036308;28;20466;-76
2023/01/12 07:04:59;;;;;;;2.65;0.32;;;9.70;99.90;;;;;;5002139;28;20128;-77
2023/01/12 07:07:25;;;;;;;3.58;0.30;;;9.70;99.90;;;;;;5018217;28;20064;-77
2023/01/12 07:09:50;;;;;;;3.40;0.50;;;9.80;99.90;;;;;;5034497;28;20117;-76
2023/01/12 07:12:16;;;;;;;3.30;0.40;;;9.80;99.90;;;;;;5034548;28;20037;-76
2023/01/12 07:14:41;;;;;;;2.65;0.30;;;9.80;99.90;;;;;;5035335;28;20506;-77
2023/01/12 07:17:07;;;;;;;3.78;0.30;;;9.80;99.90;;;;;;5018237;28;20474;-77
2023/01/12 07:19:33;;;;;;;4.03;0.45;;;9.80;99.90;;;;;;5018292;28;20036;-76
2023/01/12 07:21:58;;;;;;;2.17;0.40;;;9.90;99.90;;;;;;5034539;28;20030;-76
2023/01/12 07:24:24;;;;;;;4.63;0.88;;;9.90;99.90;;;;;;5034394;28;20037;-76
2023/01/12 07:26:51;;;;;;;1.85;0.40;;;9.90;99.90;;;;;;5035861;28;20083;-75
2023/01/12 07:29:16;;;;;;;3.03;0.60;;;9.90;99.90;;;;;;5002136;28;20040;-77
2023/01/12 07:31:43;;;;;;;2.42;0.40;;;9.80;99.90;;;;;;5034370;28;20029;-76
2023/01/12 07:34:09;;;;;;;3.08;0.50;;;9.90;99.90;;;;;;5034520;28;20037;-71
2023/01/12 07:36:34;;;;;;;2.35;0.40;;;9.90;99.90;;;;;;5017936;28;20406;-71
2023/01/12 07:39:00;;;;;;;3.10;0.52;;;9.90;99.90;;;;;;5034795;28;20036;-71
2023/01/12 07:44:10;;;;;;;4.20;0.57;;;9.90;99.90;;;;;;5035124;28;20051;-77
2023/01/12 07:46:36;;;;;;;3.40;0.73;;;9.90;99.90;;;;;;5035022;28;20109;-76
2023/01/12 07:49:01;;;;;;;3.60;0.60;;;9.90;99.90;;;;;;5018294;28;20034;-77
2023/01/12 07:51:27;;;;;;;4.40;0.52;;;10.00;99.90;;;;;;5034346;28;20124;-75
2023/01/12 07:53:53;;;;;;;3.90;0.93;;;10.00;99.90;;;;;;5034133;28;20041;-76
2023/01/12 07:56:18;;;;;;;2.33;0.50;;;10.00;99.90;;;;;;5035227;28;20304;-75
2023/01/12 07:58:48;;;;;;;3.00;0.45;;;10.00;99.90;;;;;;5034436;28;20030;-76
2023/01/12 08:01:14;;;;;;;4.80;0.63;;;10.10;99.90;;;;;;5016750;28;20053;-76
2023/01/12 08:03:40;;;;;;;4.97;0.70;;;10.00;99.90;;;;;;5035159;28;20025;-76
2023/01/12 08:06:07;;;;;;;2.00;0.50;;;10.10;99.90;;;;;;5035286;28;20112;-80
2023/01/12 08:08:32;;;;;;;3.15;0.80;;;10.10;99.90;;;;;;5035211;28;20059;-77
2023/01/12 08:11:06;;;;;;;1.65;0.50;;;10.10;99.90;;;;;;5017637;28;20430;-75
2023/01/12 08:13:33;;;;;;;3.28;0.50;;;10.10;99.90;;;;;;5034424;28;20064;-77
2023/01/12 08:16:05;;;;;;;2.17;0.47;;;10.10;99.90;;;;;;5034520;28;20025;-76
2023/01/12 08:18:41;;;;;;;3.83;0.60;;;10.10;99.90;;;;;;5034764;28;20080;-77
2023/01/12 08:21:11;;;;;;;3.38;0.85;;;10.10;99.90;;;;;;5033875;28;20033;-76
2023/01/12 08:23:40;;;;;;;1.95;0.70;;;10.10;99.90;;;;;;5034741;28;20202;-74
2023/01/12 08:26:13;;;;;;;2.17;0.80;;;10.10;99.90;;;;;;5033385;28;20037;-75
2023/01/12 08:28:46;;;;;;;3.55;1.00;;;10.10;99.90;;;;;;5033968;28;20063;-76
2023/01/12 08:31:14;;;;;;;2.05;1.00;;;10.20;99.90;;;;;;5035173;28;20497;-76
2023/01/12 08:33:40;;;;;;;3.35;0.88;;;10.20;99.90;;;;;;5033334;28;20113;-76
2023/01/12 08:36:09;;;;;;;3.35;0.93;;;10.20;99.90;;;;;;5016439;28;20049;-77
2023/01/12 08:38:35;;;;;;;2.72;1.20;;;10.20;99.90;;;;;;5032899;28;20049;-76
2023/01/12 08:44:03;;;;;;;2.45;1.25;;;10.20;99.90;;;;;;5033393;28;20052;-74
2023/01/12 08:46:30;;;;;;;4.32;1.60;;;10.20;99.90;;;;;;5032944;28;20466;-75
2023/01/12 08:48:56;;;;;;;2.55;1.80;;;10.20;99.90;;;;;;5034082;28;20075;-74
2023/01/12 08:51:21;;;;;;;4.30;1.33;;;10.20;99.90;;;;;;5033448;28;20029;-75
2023/01/12 08:53:47;;;;;;;3.55;1.55;;;10.20;99.90;;;;;;5032524;28;20065;-75
2023/01/12 08:56:13;;;;;;;1.92;1.30;;;10.20;99.90;;;;;;5032619;28;20032;-78
2023/01/12 08:58:39;;;;;;;2.72;1.40;;;10.20;99.90;;;;;;5033008;28;20416;-78
2023/01/12 09:01:10;;;;;;;4.07;1.73;;;10.20;99.90;;;;;;5034395;28;20386;-78
2023/01/12 09:03:36;;;;;;;5.57;1.20;;;10.20;99.90;;;;;;5033504;28;20054;-77
2023/01/12 09:06:17;;;;;;;2.08;1.05;;;10.20;99.90;;;;;;5033774;28;20036;-77
2023/01/12 09:08:43;;;;;;;4.15;1.77;;;10.30;99.90;;;;;;5033700;28;20096;-78
2023/01/12 09:11:12;;;;;;;4.00;1.90;;;10.30;99.90;;;;;;5033819;28;20117;-77
2023/01/12 09:13:38;;;;;;;2.92;1.42;;;10.30;99.90;;;;;;5033702;28;20099;-77
2023/01/12 09:16:06;;;;;;;2.17;1.23;;;10.30;99.90;;;;;;5032775;28;20112;-75
2023/01/12 09:18:32;;;;;;;4.07;1.65;;;10.30;99.90;;;;;;5032246;28;20123;-78
2023/01/12 09:21:06;;;;;;;2.67;1.30;;;10.30;99.90;;;;;;5033803;28;20026;-78
2023/01/12 09:23:32;;;;;;;3.50;1.77;;;10.30;99.90;;;;;;5033803;28;20036;-73
2023/01/12 09:26:05;;;;;;;2.13;1.45;;;10.30;99.90;;;;;;5032574;28;20132;-72
2023/01/12 09:28:31;;;;;;;;;;;10.40;99.90;;;;;;5033907;28;20374;-72
2023/01/12 09:31:06;;;;;;;3.88;1.65;;;10.40;99.90;;;;;;5032553;28;19912;-72
2023/01/12 09:33:32;;;;;;;3.03;1.80;;;10.40;99.90;;;;;;5033509;28;20068;-72
2023/01/12 09:36:06;;;;;;;7.93;3.58;;;10.40;99.90;;;;;;5031645;28;20486;-73
2023/01/12 09:38:37;;;;;;;2.63;2.05;;;10.40;99.90;;;;;;5032705;28;20060;-72
2023/01/12 09:46:57;;;;;;;3.78;2.15;;;10.40;99.90;;;;;;5032486;28;20053;-72
2023/01/12 09:46:57;;;;;;;3.05;2.28;;;10.40;99.90;;;;;;5033367;28;20168;-73
2023/01/12 09:49:34;;;;;;;2.80;2.20;;;10.40;99.90;;;;;;5032579;28;20477;-73
2023/01/12 09:52:15;;;;;;;3.80;2.00;;;10.40;99.90;;;;;;5032454;28;20021;-72
2023/01/12 09:54:41;;;;;;;3.92;2.20;;;10.50;99.90;;;;;;5032977;28;20040;-72
2023/01/12 09:57:25;;;;;;;2.17;2.00;;;10.50;99.90;;;;;;5033517;28;20033;-73
2023/01/12 10:00:10;;;;;;;4.35;2.60;;;10.50;99.90;;;;;;5032372;28;20044;-72
2023/01/12 10:02:40;;;;;;;3.05;2.00;;;10.50;99.90;;;;;;5033130;28;20539;-73
2023/01/12 10:05:32;;;;;;;2.08;1.92;;;10.50;99.90;;;;;;5032626;28;20049;-72
2023/01/12 10:07:58;;;;;;;3.67;1.88;;;10.50;99.90;;;;;;5032932;28;20038;-74
2023/01/12 10:10:24;;;;;;;4.07;1.83;;;10.50;99.90;;;;;;5033157;28;20084;-75
2023/01/12 10:12:56;;;;;;;2.65;2.20;;;10.60;99.90;;;;;;5031999;28;20548;-74
2023/01/12 10:15:50;;;;;;;2.10;1.90;;;10.60;99.90;;;;;;5032164;28;20577;-75
2023/01/12 10:18:39;;;;;;;3.22;2.10;;;10.60;99.90;;;;;;5033357;28;20093;-76
2023/01/12 10:21:09;;;;;;;3.30;1.67;;;10.60;99.90;;;;;;5031993;28;20034;-74
2023/01/12 10:23:35;;;;;;;2.35;1.73;;;10.60;99.90;;;;;;5032108;28;20401;-74
2023/01/12 10:26:10;;;;;;;3.95;1.90;;;10.60;99.90;;;;;;5036754;28;20033;-74
2023/01/12 10:28:36;;;;;;;1.98;1.50;;;10.60;99.90;;;;;;5037226;28;20029;-75
2023/01/12 10:31:02;;;;;;;2.40;1.45;;;10.60;99.90;;;;;;5036186;28;20421;-74
2023/01/12 10:33:33;;;;;;;5.25;1.58;;;10.60;99.90;;;;;;5035422;28;20398;-73
2023/01/12 10:36:03;;;;;;;1.95;1.10;;;10.60;99.90;;;;;;5035133;28;20052;-75
2023/01/12 10:38:36;;;;;;;1.48;1.02;;;10.60;99.90;;;;;;5036968;28;20079;-75
2023/01/12 10:41:19;;;;;;;1.80;1.20;;;10.60;99.90;;;;;;5036865;28;20482;-71
2023/01/12 10:44:12;;;;;;;1.83;1.00;;;10.70;99.90;;;;;;5019558;28;20037;-71
2023/01/12 10:46:37;;;;;;;1.00;0.70;;;10.70;99.90;;;;;;5035283;28;20026;-74
2023/01/12 10:49:21;;;;;;;1.30;0.60;;;10.70;99.90;;;;;;5019146;28;20037;-73
2023/01/12 10:52:00;;;;;;;0.70;0.63;;;10.70;99.90;;;;;;5036559;28;20034;-74
2023/01/12 10:54:32;;;;;;;1.55;0.90;;;10.70;99.90;;;;;;5036487;28;20084;-74
2023/01/12 10:57:16;;;;;;;2.05;1.25;;;10.70;99.90;;;;;;5035585;28;20025;-75
2023/01/12 10:59:49;;;;;;;1.75;0.77;;;10.70;99.90;;;;;;5036605;28;20099;-74
2023/01/12 11:02:15;;;;;;;0.85;0.70;;;10.70;99.90;;;;;;5035366;28;20374;-73
2023/01/12 11:04:46;;;;;;;2.35;0.90;;;10.80;99.90;;;;;;5018577;28;20033;-74
2023/01/12 11:07:27;;;;;;;1.23;0.80;;;10.70;99.90;;;;;;5036165;28;20563;-74
2023/01/12 11:09:54;;;;;;;1.25;0.90;;;10.80;99.90;;;;;;5036594;28;20400;-74
2023/01/12 11:12:34;;;;;;;1.40;0.80;;;10.80;99.90;;;;;;5035405;28;20060;-75
2023/01/12 11:15:02;;;;;;;1.30;0.73;;;10.80;99.90;;;;;;5036401;28;20061;-75
2023/01/12 11:17:37;;;;;;;0.95;0.40;;;10.80;99.90;;;;;;5036096;28;20041;-73
2023/01/12 11:20:13;;;;;;;2.40;1.20;;;10.90;99.90;;;;;;5034664;28;20033;-70
2023/01/12 11:22:41;;;;;;;1.25;1.15;;;10.90;99.90;;;;;;5035615;28;20101;-71
2023/01/12 11:25:20;;;;;;;1.60;1.10;;;10.90;99.90;;;;;;5035551;28;20133;-71
2023/01/12 11:28:19;;;;;;;1.35;1.20;;;10.90;99.90;;;;;;5035917;28;20108;-71
2023/01/12 11:30:53;;;;;;;1.60;1.50;;;10.90;99.90;;;;;;5035799;28;20032;-70
2023/01/12 11:33:25;;;;;;;2.00;1.63;;;10.90;99.90;;;;;;5035533;28;20033;-71
2023/01/12 11:36:05;;;;;;;2.55;1.88;;;10.90;99.90;;;;;;5034538;28;20442;-71
2023/01/12 11:38:35;;;;;;;2.00;1.77;;;10.90;99.90;;;;;;5035907;28;20025;-71
2023/01/12 11:41:06;;;;;;;2.47;1.67;;;10.90;99.90;;;;;;5033910;28;20044;-71
2023/01/12 11:44:00;;;;;;;2.38;1.65;;;10.90;99.90;;;;;;5035292;28;20112;-71
2023/01/12 11:46:34;;;;;;;1.63;1.23;;;10.90;99.90;;;;;;5035442;28;20024;-71
2023/01/12 11:49:18;;;;;;;1.55;1.45;;;10.90;99.90;;;;;;5035234;28;20103;-71
2023/01/12 11:51:54;;;;;;;1.85;1.25;;;10.90;99.90;;;;;;5034921;28;20104;-71
2023/01/12 11:54:21;;;;;;;1.38;1.27;;;10.90;99.90;;;;;;5035117;28;20034;-70
2023/01/12 11:57:20;;;;;;;1.40;1.20;;;11.00;99.90;;;;;;5033933;28;20026;-71
2023/01/12 12:00:13;;;;;;;1.92;1.65;;;11.00;99.90;;;;;;5035448;28;20048;-74
2023/01/12 12:03:04;;;;;;;1.60;1.50;;;11.00;99.90;;;;;;5035418;28;20029;-73
2023/01/12 12:05:49;;;;;;;1.58;1.48;;;11.00;99.90;;;;;;5035560;28;20036;-74
2023/01/12 12:08:43;;;;;;;1.55;1.45;;;11.00;99.90;;;;;;5035588;28;20037;-75
2023/01/12 12:11:11;;;;;;;2.17;1.42;;;11.00;99.90;;;;;;5035157;28;20029;-75
2023/01/12 12:14:01;;;;;;;1.25;1.15;;;11.00;99.90;;;;;;5033659;28;20067;-75
2023/01/12 12:16:42;;;;;;;1.58;1.30;;;11.00;99.90;;;;;;5035577;28;20029;-75
2023/01/12 12:19:38;;;;;;;3.00;1.73;;;11.00;99.90;;;;;;5034880;28;20017;-75
2023/01/12 12:22:29;;;;;;;1.95;1.33;;;11.00;99.90;;;;;;5033674;28;20056;-75
2023/01/12 12:25:31;;;;;;;1.50;1.40;;;11.00;99.90;;;;;;5035205;28;20029;-75
2023/01/12 12:28:17;;;;;;;1.40;1.10;;;11.00;99.90;;;;;;5033219;28;20041;-75
2023/01/12 12:30:59;;;;;;;4.07;1.27;;;11.00;99.90;;;;;;5034596;28;20030;-76
2023/01/12 12:33:44;;;;;;;1.20;1.10;;;11.00;99.90;;;;;;5032939;28;20041;-76
2023/01/12 12:36:31;;;;;;;1.10;1.00;;;11.00;99.90;;;;;;5033923;28;20078;-75
2023/01/12 12:39:21;;;;;;;1.60;1.00;;;11.00;99.90;;;;;;5034203;28;20025;-75
2023/01/12 12:45:25;;;;;;;1.40;0.93;;;11.00;99.90;;;;;;5033925;28;20044;-75
2023/01/12 12:48:02;;;;;;;0.80;0.70;;;11.10;99.90;;;;;;5032481;28;20167;-75
2023/01/12 12:50:30;;;;;;;0.88;0.50;;;11.00;99.90;;;;;;5033098;28;20349;-74
2023/01/12 12:53:13;;;;;;;0.90;0.65;;;11.10;99.90;;;;;;5034176;28;20026;-75
2023/01/12 12:55:41;;;;;;;1.17;0.60;;;11.10;99.90;;;;;;5033527;28;20029;-74
2023/01/12 12:58:22;;;;;;;0.93;0.50;;;11.10;99.90;;;;;;5032158;28;20045;-76
2023/01/12 13:00:49;;;;;;;0.70;0.47;;;11.10;99.90;;;;;;5031898;28;20453;-75
2023/01/12 13:03:40;;;;;;;0.82;0.50;;;11.10;99.90;;;;;;5031962;28;20029;-74
2023/01/12 13:06:26;;;;;;;0.90;0.73;;;11.10;99.90;;;;;;5032748;28;20151;-75
2023/01/12 13:09:01;;;;;;;1.10;0.70;;;11.10;99.90;;;;;;5032596;28;20025;-76
2023/01/12 13:11:52;;;;;;;1.15;0.60;;;11.10;99.90;;;;;;5033375;28;20026;-76
2023/01/12 13:14:25;;;;;;;0.60;0.40;;;11.10;99.90;;;;;;5031778;28;20040;-75
2023/01/12 13:16:53;;;;;;;1.33;0.52;;;11.10;99.90;;;;;;5032256;28;20036;-74
2023/01/12 13:19:38;;;;;;;0.90;0.50;;;11.10;99.90;;;;;;5032940;28;20061;-76
2023/01/12 13:22:38;;;;;;;1.52;0.43;;;11.00;99.90;;;;;;5033158;28;20499;-75
2023/01/12 13:25:18;;;;;;;1.10;0.75;;;11.10;99.90;;;;;;5032277;28;20030;-75
2023/01/12 13:28:04;;;;;;;0.93;0.88;;;11.10;99.90;;;;;;5032589;28;20025;-75
2023/01/12 13:30:30;;;;;;;1.50;1.10;;;11.00;99.90;;;;;;5031987;28;20026;-75
2023/01/12 13:33:28;;;;;;;1.45;1.10;;;11.00;99.90;;;;;;5031963;28;20079;-74
2023/01/12 13:36:07;;;;;;;1.77;1.67;;;11.00;99.90;;;;;;5031633;28;20055;-76
2023/01/12 13:38:32;;;;;;;1.60;1.50;;;11.00;99.90;;;;;;5033058;28;20026;-76
2023/01/12 13:41:13;;;;;;;1.42;1.10;;;11.00;99.90;;;;;;5032439;28;20079;-74
2023/01/12 13:43:51;;;;;;;1.27;1.17;;;11.00;99.90;;;;;;5033364;28;20040;-74
2023/01/12 13:46:26;;;;;;;1.13;0.88;;;11.00;99.90;;;;;;5032275;28;20492;-76
2023/01/12 13:48:54;;;;;;;1.05;0.60;;;11.00;99.90;;;;;;5032817;28;20100;-75